Time;durP1;ratioP1;P1;durP2;ratioP2;P2;SDS_P1;SDS_P2;PMS_P1;PMS_P2;Temp;Humidity;BMP_temperature;BMP_pressure;BME280_temperature;BME280_humidity;BME280_pressure;Samples;Min_cycle;Max_cycle;Signal;HPM_P1;HPM_P2
2022/06/12 00:01:32;;;;;;;11.67;7.00;;;16.80;99.90;;;;;;4994412;28;20255;-68
2022/06/12 00:03:59;;;;;;;14.10;6.63;;;16.80;99.90;;;;;;4995613;28;20260;-67
2022/06/12 00:06:27;;;;;;;13.63;6.80;;;16.80;99.90;;;;;;4995762;28;20620;-68
2022/06/12 00:08:55;;;;;;;16.37;7.17;;;16.80;99.90;;;;;;4994403;28;20224;-67
2022/06/12 00:11:25;;;;;;;17.40;7.20;;;16.80;99.90;;;;;;4994689;28;20255;-68
2022/06/12 00:13:58;;;;;;;12.20;6.73;;;16.70;99.90;;;;;;4994482;28;20203;-67
2022/06/12 00:16:27;;;;;;;13.70;7.60;;;16.70;99.90;;;;;;4995515;28;20625;-68
2022/06/12 00:18:55;;;;;;;11.97;7.33;;;16.60;99.90;;;;;;4994695;28;20232;-71
2022/06/12 00:21:23;;;;;;;12.87;8.27;;;16.60;99.90;;;;;;4994317;28;20197;-68
2022/06/12 00:23:56;;;;;;;13.20;8.23;;;16.60;99.90;;;;;;4993984;28;20204;-68
2022/06/12 00:26:31;;;;;;;11.67;8.20;;;16.50;99.90;;;;;;5002413;28;20192;-71
2022/06/12 00:29:01;;;;;;;15.67;8.07;;;16.50;99.90;;;;;;5013699;28;20230;-68
2022/06/12 00:31:31;;;;;;;19.63;8.03;;;16.60;99.90;;;;;;5014873;28;20353;-67
2022/06/12 00:34:01;;;;;;;15.77;8.43;;;16.50;99.90;;;;;;5013598;28;20192;-69
2022/06/12 00:36:28;;;;;;;14.30;7.83;;;16.50;99.90;;;;;;5013663;28;20224;-67
2022/06/12 00:38:55;;;;;;;13.00;8.17;;;16.40;99.90;;;;;;5014755;28;20247;-73
2022/06/12 00:41:22;;;;;;;16.47;8.13;;;16.40;99.90;;;;;;5013491;28;20593;-67
2022/06/12 00:43:49;;;;;;;16.07;8.40;;;16.30;99.90;;;;;;5013245;28;20234;-69
2022/06/12 00:46:43;;;;;;;14.50;8.13;;;16.30;99.90;;;;;;5013394;28;20582;-70
2022/06/12 00:49:30;;;;;;;14.40;7.80;;;16.30;99.90;;;;;;5014602;28;20223;-68
2022/06/12 00:52:06;;;;;;;15.43;8.53;;;16.20;99.90;;;;;;5013155;28;20290;-67
2022/06/12 00:54:34;;;;;;;15.97;9.40;;;16.10;99.90;;;;;;5013245;28;20668;-67
2022/06/12 00:57:03;;;;;;;14.40;8.87;;;16.10;99.90;;;;;;5013123;28;20224;-73
2022/06/12 00:59:39;;;;;;;16.10;9.20;;;16.10;99.90;;;;;;5012919;28;20269;-69
2022/06/12 01:02:09;;;;;;;18.10;9.10;;;16.20;99.90;;;;;;5014178;28;20184;-69
2022/06/12 01:07:26;;;;;;;14.73;10.37;;;16.20;99.90;;;;;;5013372;28;20298;-72
2022/06/12 01:09:56;;;;;;;15.73;10.90;;;16.30;99.90;;;;;;5013928;28;20278;-68
2022/06/12 01:12:30;;;;;;;17.13;11.20;;;16.30;99.90;;;;;;5012765;28;20566;-68
2022/06/12 01:15:07;;;;;;;12.83;10.03;;;16.20;99.90;;;;;;5012741;28;20210;-68
2022/06/12 01:17:35;;;;;;;18.20;11.50;;;16.20;99.90;;;;;;5012777;28;20623;-67
2022/06/12 01:20:08;;;;;;;16.83;10.63;;;16.20;99.90;;;;;;5012640;28;20306;-71
2022/06/12 01:22:41;;;;;;;17.23;10.27;;;16.10;99.90;;;;;;5013807;28;20223;-69
2022/06/12 01:25:45;;;;;;;17.53;10.87;;;16.20;99.90;;;;;;5012519;28;20713;-69
2022/06/12 01:28:33;;;;;;;16.37;11.37;;;16.20;99.90;;;;;;5012605;28;20195;-80
2022/06/12 01:31:23;;;;;;;17.00;11.17;;;16.20;99.90;;;;;;5012347;28;20290;-78
2022/06/12 01:34:11;;;;;;;16.23;11.50;;;16.20;99.90;;;;;;5012631;28;20295;-68
2022/06/12 01:36:44;;;;;;;16.77;10.90;;;16.30;99.90;;;;;;5011618;28;20220;-67
2022/06/12 01:39:27;;;;;;;16.30;11.10;;;16.20;99.90;;;;;;5012053;28;20238;-81
2022/06/12 01:42:02;;;;;;;17.70;11.13;;;16.20;99.90;;;;;;5012263;28;20208;-81
2022/06/12 01:45:01;;;;;;;16.17;10.70;;;16.20;99.90;;;;;;5012129;28;20203;-69
2022/06/12 01:48:01;;;;;;;15.87;11.07;;;16.20;99.90;;;;;;5012127;28;20207;-80
2022/06/12 01:50:43;;;;;;;16.13;10.37;;;16.10;99.90;;;;;;5012099;28;20675;-69
2022/06/12 01:53:23;;;;;;;15.40;10.30;;;16.10;99.90;;;;;;5012286;28;20295;-68
2022/06/12 01:56:06;;;;;;;15.97;10.30;;;16.10;99.90;;;;;;5012244;28;20301;-67
2022/06/12 01:58:45;;;;;;;17.80;11.20;;;16.00;99.90;;;;;;5012504;28;20286;-68
2022/06/12 02:01:12;;;;;;;15.80;10.47;;;16.00;99.90;;;;;;5012731;28;20207;-68
2022/06/12 02:04:21;;;;;;;17.20;12.00;;;16.00;99.90;;;;;;5012027;28;20228;-68
2022/06/12 02:06:59;;;;;;;16.83;10.90;;;16.00;99.90;;;;;;5011805;28;20203;-70
2022/06/12 02:09:42;;;;;;;14.83;10.90;;;16.00;99.90;;;;;;5013339;28;20325;-68
2022/06/12 02:15:06;;;;;;;15.10;10.60;;;15.90;99.90;;;;;;5011690;28;20295;-69
2022/06/12 02:17:38;;;;;;;17.27;10.83;;;15.90;99.90;;;;;;5012085;28;20203;-70
2022/06/12 02:20:10;;;;;;;17.30;10.23;;;15.90;99.90;;;;;;5013229;28;20299;-68
2022/06/12 02:22:43;;;;;;;16.13;10.37;;;15.90;99.90;;;;;;5011950;28;20688;-69
2022/06/12 02:25:38;;;;;;;14.83;9.93;;;16.00;99.90;;;;;;5011605;28;20649;-69
2022/06/12 02:28:12;;;;;;;14.57;9.70;;;15.90;99.90;;;;;;5012110;28;20661;-70
2022/06/12 02:30:44;;;;;;;13.60;9.87;;;15.90;99.90;;;;;;5011926;28;20688;-69
2022/06/12 02:33:17;;;;;;;15.93;10.17;;;15.80;99.90;;;;;;5011934;28;20222;-68
2022/06/12 02:36:07;;;;;;;14.97;9.53;;;15.80;99.90;;;;;;5011706;28;20224;-68
2022/06/12 02:38:49;;;;;;;14.10;10.00;;;15.80;99.90;;;;;;4996102;28;20192;-68
2022/06/12 02:41:33;;;;;;;18.17;10.33;;;15.70;99.90;;;;;;5013200;28;20234;-69
2022/06/12 02:44:07;;;;;;;14.97;9.90;;;15.70;99.90;;;;;;5011844;28;20559;-69
2022/06/12 02:46:40;;;;;;;13.27;9.57;;;15.80;99.90;;;;;;5011634;28;20214;-68
2022/06/12 02:49:09;;;;;;;14.77;9.37;;;15.80;99.90;;;;;;5014690;28;20254;-68
2022/06/12 02:52:01;;;;;;;13.60;9.37;;;15.80;99.90;;;;;;5015610;28;20230;-69
2022/06/12 02:54:31;;;;;;;14.33;9.60;;;15.90;99.90;;;;;;5015440;28;20212;-68
2022/06/12 02:57:14;;;;;;;15.03;9.17;;;15.90;99.90;;;;;;5015266;28;20203;-68
2022/06/12 02:59:51;;;;;;;13.67;9.03;;;15.90;99.90;;;;;;5015235;28;20329;-69
2022/06/12 03:02:36;;;;;;;11.83;8.70;;;16.00;99.90;;;;;;5016606;28;20538;-68
2022/06/12 03:05:03;;;;;;;18.07;9.50;;;16.00;99.90;;;;;;5015179;28;20204;-68
2022/06/12 03:07:31;;;;;;;15.30;9.20;;;16.00;99.90;;;;;;5015583;28;20283;-68
2022/06/12 03:10:06;;;;;;;13.77;9.60;;;16.00;99.90;;;;;;5015193;28;20208;-68
2022/06/12 03:12:33;;;;;;;17.70;9.80;;;16.00;99.90;;;;;;5015188;28;20202;-69
2022/06/12 03:15:21;;;;;;;13.43;9.07;;;16.10;99.90;;;;;;5014973;28;20295;-69
2022/06/12 03:17:48;;;;;;;16.50;9.57;;;16.10;99.90;;;;;;5015218;28;20552;-68
2022/06/12 03:20:15;;;;;;;15.47;8.90;;;16.10;99.90;;;;;;5014755;28;20228;-68
2022/06/12 03:22:56;;;;;;;11.97;9.00;;;16.20;99.90;;;;;;5014888;28;20204;-69
2022/06/12 03:25:36;;;;;;;12.83;9.20;;;16.30;99.90;;;;;;5015928;28;20224;-68
2022/06/12 03:28:15;;;;;;;14.97;9.07;;;16.30;99.90;;;;;;5014894;28;20238;-68
2022/06/12 03:30:51;;;;;;;14.77;8.40;;;16.30;99.90;;;;;;5014633;28;20692;-68
2022/06/12 03:33:30;;;;;;;13.77;8.77;;;16.30;99.90;;;;;;5014900;28;20656;-70
2022/06/12 03:36:09;;;;;;;13.43;8.43;;;16.30;99.90;;;;;;5014613;28;20216;-68
2022/06/12 03:38:52;;;;;;;16.53;9.60;;;16.30;99.90;;;;;;5014748;28;20196;-69
2022/06/12 03:41:42;;;;;;;12.70;8.50;;;16.30;99.90;;;;;;5014641;28;20235;-69
2022/06/12 03:44:34;;;;;;;11.73;8.43;;;16.30;99.90;;;;;;4998169;28;20295;-68
2022/06/12 03:47:29;;;;;;;12.43;7.80;;;16.40;99.90;;;;;;5014618;28;20200;-68
2022/06/12 03:50:20;;;;;;;13.67;8.20;;;16.50;99.90;;;;;;5015764;28;20188;-68
2022/06/12 03:53:13;;;;;;;12.47;7.60;;;16.60;99.90;;;;;;5014537;28;20200;-68
2022/06/12 03:58:47;;;;;;;11.00;7.33;;;16.80;99.90;;;;;;5014552;28;20200;-69
2022/06/12 04:01:15;;;;;;;12.00;7.70;;;16.90;99.90;;;;;;5013666;28;20258;-69
2022/06/12 04:03:45;;;;;;;13.70;7.37;;;17.00;99.90;;;;;;5014085;28;20604;-69
2022/06/12 04:06:25;;;;;;;14.60;7.93;;;17.00;99.90;;;;;;5014188;28;20200;-69
2022/06/12 04:09:04;;;;;;;12.93;7.03;;;17.10;99.90;;;;;;5014429;28;20202;-71
2022/06/12 04:11:36;;;;;;;8.73;6.43;;;17.20;99.90;;;;;;5014173;28;20262;-73
2022/06/12 04:14:05;;;;;;;9.20;5.63;;;17.30;99.90;;;;;;5013861;28;20605;-69
2022/06/12 04:16:40;;;;;;;10.43;6.47;;;17.40;99.90;;;;;;5013924;28;20231;-70
2022/06/12 04:19:14;;;;;;;9.57;6.23;;;17.60;99.90;;;;;;5013900;28;20202;-68
2022/06/12 04:21:50;;;;;;;9.87;6.30;;;17.70;99.90;;;;;;5013986;28;20651;-72
2022/06/12 04:24:29;;;;;;;9.07;5.93;;;17.70;99.90;;;;;;5014218;28;20299;-70
2022/06/12 04:27:04;;;;;;;11.23;5.93;;;17.80;99.90;;;;;;5013634;28;20204;-70
2022/06/12 04:29:36;;;;;;;8.40;5.97;;;18.00;99.90;;;;;;5013713;28;20291;-69
2022/06/12 04:32:06;;;;;;;9.80;5.90;;;18.00;99.90;;;;;;5015130;28;20279;-69
2022/06/12 04:34:39;;;;;;;8.77;5.73;;;18.10;99.90;;;;;;4997107;28;20637;-68
2022/06/12 04:37:12;;;;;;;5.83;4.43;;;18.20;99.90;;;;;;5013637;28;20218;-68
2022/06/12 04:39:39;;;;;;;5.70;4.13;;;18.30;99.90;;;;;;5013907;28;20220;-69
2022/06/12 04:42:07;;;;;;;5.47;3.70;;;18.40;99.90;;;;;;5013320;28;20291;-68
2022/06/12 04:44:34;;;;;;;5.83;3.97;;;18.50;99.90;;;;;;5013577;28;20287;-68
2022/06/12 04:47:04;;;;;;;9.17;4.03;;;18.50;99.90;;;;;;5013300;28;20212;-68
2022/06/12 04:49:34;;;;;;;6.87;3.90;;;18.70;99.90;;;;;;5014997;28;20687;-68
2022/06/12 04:52:05;;;;;;;6.70;3.90;;;18.70;99.90;;;;;;5013365;28;20204;-67
2022/06/12 04:54:33;;;;;;;7.10;3.57;;;18.70;99.90;;;;;;5013591;28;20210;-69
2022/06/12 04:57:00;;;;;;;6.73;3.57;;;18.80;99.90;;;;;;5013186;28;20200;-67
2022/06/12 04:59:28;;;;;;;5.37;3.20;;;18.90;99.90;;;;;;5013417;28;20204;-68
2022/06/12 05:01:56;;;;;;;5.73;3.53;;;18.90;99.90;;;;;;5014460;28;20224;-68
2022/06/12 05:04:25;;;;;;;14.93;3.97;;;19.00;99.90;;;;;;5012940;28;20224;-68
2022/06/12 05:06:52;;;;;;;7.80;3.60;;;19.10;99.90;;;;;;5012804;28;20220;-70
2022/06/12 05:09:22;;;;;;;6.80;3.70;;;19.20;99.90;;;;;;5012852;28;20200;-68
2022/06/12 05:11:50;;;;;;;6.60;3.40;;;19.30;99.90;;;;;;5012622;28;20548;-68
2022/06/12 05:14:17;;;;;;;8.17;3.40;;;19.30;99.90;;;;;;5012839;28;20203;-67
2022/06/12 05:16:48;;;;;;;4.30;3.20;;;19.40;99.90;;;;;;5012845;28;20196;-68
2022/06/12 05:19:18;;;;;;;5.67;3.73;;;19.50;99.90;;;;;;5012793;28;20196;-71
2022/06/12 05:21:46;;;;;;;5.43;3.37;;;19.60;99.90;;;;;;5014453;28;20223;-69
2022/06/12 05:24:15;;;;;;;7.63;3.50;;;19.70;99.90;;;;;;5012575;28;20192;-68
2022/06/12 05:26:45;;;;;;;3.97;2.67;;;19.80;99.90;;;;;;5012464;28;20758;-71
2022/06/12 05:29:17;;;;;;;6.83;2.90;;;19.90;99.90;;;;;;5012649;28;20250;-68
2022/06/12 05:31:46;;;;;;;8.30;2.83;;;19.80;99.90;;;;;;5013699;28;20218;-69
2022/06/12 05:34:15;;;;;;;5.07;3.20;;;19.90;99.90;;;;;;5013963;28;20196;-68
2022/06/12 05:36:45;;;;;;;14.13;3.50;;;19.90;99.90;;;;;;5012053;28;20319;-68
2022/06/12 05:39:12;;;;;;;5.17;3.00;;;19.90;99.90;;;;;;5012175;28;20740;-67
2022/06/12 05:41:40;;;;;;;5.00;3.10;;;20.00;99.90;;;;;;5012188;28;20361;-68
2022/06/12 05:44:07;;;;;;;4.50;2.90;;;20.20;99.90;;;;;;5012203;28;20211;-68
2022/06/12 05:46:34;;;;;;;7.40;3.50;;;20.20;99.90;;;;;;5011903;28;20250;-68
2022/06/12 05:49:02;;;;;;;4.37;2.60;;;20.40;99.90;;;;;;5012313;28;20211;-68
2022/06/12 05:51:30;;;;;;;3.07;2.40;;;20.40;99.90;;;;;;5012182;28;20200;-68
2022/06/12 05:53:57;;;;;;;5.57;2.77;;;20.60;99.90;;;;;;5011819;28;20229;-69
2022/06/12 05:56:26;;;;;;;4.97;2.90;;;20.60;99.90;;;;;;5011814;28;20212;-68
2022/06/12 05:58:55;;;;;;;3.77;2.53;;;20.60;99.90;;;;;;5012075;28;20193;-69
2022/06/12 06:01:23;;;;;;;7.63;2.80;;;20.70;99.90;;;;;;5011822;28;20231;-68
2022/06/12 06:03:51;;;;;;;4.40;2.60;;;20.80;99.90;;;;;;5011615;28;20327;-69
2022/06/12 06:06:29;;;;;;;4.87;2.60;;;20.80;99.90;;;;;;5011534;28;20219;-68
2022/06/12 06:09:03;;;;;;;5.87;2.60;;;21.00;99.90;;;;;;5011746;28;20290;-68
2022/06/12 06:11:30;;;;;;;6.97;2.60;;;21.10;99.90;;;;;;5011898;28;20282;-68
2022/06/12 06:13:57;;;;;;;7.20;2.87;;;21.20;99.90;;;;;;5011968;28;20197;-68
2022/06/12 06:16:24;;;;;;;5.03;2.70;;;21.30;99.90;;;;;;5011735;28;20224;-68
2022/06/12 06:18:53;;;;;;;6.03;2.47;;;21.40;99.90;;;;;;5011586;28;20294;-69
2022/06/12 06:21:20;;;;;;;5.17;2.40;;;21.40;99.90;;;;;;5011997;28;20222;-68
2022/06/12 06:23:48;;;;;;;4.30;2.57;;;21.50;99.90;;;;;;5014372;28;20652;-69
2022/06/12 06:26:16;;;;;;;13.10;3.40;;;21.50;99.90;;;;;;5015468;28;20196;-68
2022/06/12 06:28:44;;;;;;;3.57;2.30;;;21.70;99.90;;;;;;5015837;28;20220;-69
2022/06/12 06:31:11;;;;;;;7.77;2.70;;;21.90;99.90;;;;;;5016981;28;20196;-68
2022/06/12 06:33:38;;;;;;;3.23;2.20;;;22.10;99.90;;;;;;5015687;28;20295;-68
2022/06/12 06:36:09;;;;;;;6.17;2.27;;;22.20;99.90;;;;;;5016724;28;20269;-69
2022/06/12 06:38:37;;;;;;;3.23;2.03;;;22.30;99.90;;;;;;5016833;28;20563;-69
2022/06/12 06:41:05;;;;;;;4.50;2.20;;;22.40;99.90;;;;;;5015651;28;20226;-75
2022/06/12 06:46:13;;;;;;;3.57;2.20;;;22.50;99.90;;;;;;5015458;28;20200;-69
2022/06/12 06:46:20;;;;;;;6.05;2.85;;;22.80;99.90;;;;;;5015327;28;20198;-69
2022/06/12 06:48:47;;;;;;;6.57;2.50;;;22.90;99.90;;;;;;5015718;28;20650;-69
2022/06/12 06:51:14;;;;;;;6.87;2.40;;;23.00;99.90;;;;;;5015466;28;20222;-69
2022/06/12 06:53:41;;;;;;;5.40;2.20;;;23.20;99.90;;;;;;5015440;28;20291;-68
2022/06/12 06:56:08;;;;;;;5.68;2.50;;;23.30;99.90;;;;;;5015377;28;20210;-71
2022/06/12 06:58:35;;;;;;;5.00;2.60;;;23.20;99.90;;;;;;5014869;28;20200;-72
2022/06/12 07:01:03;;;;;;;4.53;2.43;;;23.30;99.90;;;;;;5015795;28;20316;-69
2022/06/12 07:03:31;;;;;;;5.15;2.40;;;23.60;99.90;;;;;;5014927;28;20220;-68
2022/06/12 07:05:59;;;;;;;5.05;2.50;;;23.70;99.90;;;;;;5015092;28;20266;-72
2022/06/12 07:08:27;;;;;;;3.80;2.20;;;23.70;99.90;;;;;;5014995;28;20668;-69
2022/06/12 07:10:55;;;;;;;2.70;2.20;;;23.70;99.90;;;;;;5014979;28;20303;-68
2022/06/12 07:13:23;;;;;;;2.72;1.90;;;23.70;99.90;;;;;;5014654;28;20228;-69
2022/06/12 07:15:50;;;;;;;3.53;2.20;;;23.70;99.90;;;;;;5014791;28;20210;-70
2022/06/12 07:18:18;;;;;;;2.88;2.13;;;23.80;99.90;;;;;;5016339;28;20184;-75
2022/06/12 07:20:51;;;;;;;4.57;2.35;;;23.80;99.90;;;;;;5015017;28;20238;-76
2022/06/12 07:23:20;;;;;;;4.70;2.05;;;23.80;99.90;;;;;;5016052;28;20688;-69
2022/06/12 07:25:53;;;;;;;3.63;2.20;;;23.70;99.90;;;;;;5014661;28;20235;-70
2022/06/12 07:28:22;;;;;;;3.97;2.10;;;23.60;99.90;;;;;;5014805;28;20200;-75
2022/06/12 07:30:50;;;;;;;4.78;2.50;;;23.90;99.90;;;;;;5016001;28;20589;-69
2022/06/12 07:33:18;;;;;;;2.60;2.10;;;23.90;99.90;;;;;;5014255;28;20303;-69
2022/06/12 07:35:47;;;;;;;3.40;2.60;;;24.00;99.90;;;;;;5015498;28;20299;-69
2022/06/12 07:38:17;;;;;;;2.60;2.30;;;24.00;99.90;;;;;;5014565;28;20291;-69
2022/06/12 07:40:48;;;;;;;4.05;2.40;;;24.10;99.90;;;;;;5014213;28;20614;-69
2022/06/12 07:43:16;;;;;;;4.68;2.50;;;24.10;99.90;;;;;;5015541;28;20192;-70
2022/06/12 07:45:44;;;;;;;3.00;2.47;;;24.00;99.90;;;;;;5014290;28;20382;-69
2022/06/12 07:48:11;;;;;;;3.20;2.40;;;24.10;99.90;;;;;;5014658;28;20684;-70
2022/06/12 07:50:41;;;;;;;4.50;2.58;;;24.20;99.90;;;;;;5014411;28;20294;-69
2022/06/12 07:53:10;;;;;;;3.30;2.65;;;24.40;99.90;;;;;;5014236;28;20192;-69
2022/06/12 07:55:37;;;;;;;3.53;2.50;;;24.20;99.90;;;;;;5014230;28;20228;-69
2022/06/12 07:58:05;;;;;;;3.03;2.67;;;24.10;99.90;;;;;;5015328;28;20204;-69
2022/06/12 08:00:32;;;;;;;3.80;2.60;;;24.10;99.90;;;;;;5014484;28;20212;-68
2022/06/12 08:02:59;;;;;;;4.10;2.50;;;24.10;99.90;;;;;;5013871;28;20271;-70
2022/06/12 08:05:26;;;;;;;3.95;2.70;;;24.20;99.90;;;;;;5013887;28;20203;-69
2022/06/12 08:07:53;;;;;;;5.43;2.75;;;24.00;99.90;;;;;;5013896;28;20315;-69
2022/06/12 08:10:20;;;;;;;3.55;2.60;;;24.00;99.90;;;;;;5013881;28;20224;-74
2022/06/12 08:12:49;;;;;;;6.10;2.90;;;23.90;99.90;;;;;;5013599;28;20300;-71
2022/06/12 08:15:24;;;;;;;7.45;3.42;;;23.80;99.90;;;;;;5013459;28;20231;-68
2022/06/12 08:17:51;;;;;;;3.67;2.72;;;23.80;99.90;;;;;;5013931;28;20297;-68
2022/06/12 08:20:24;;;;;;;4.03;2.85;;;23.60;99.90;;;;;;5013468;28;20220;-68
2022/06/12 08:23:26;;;;;;;5.05;3.03;;;23.80;99.90;;;;;;5013752;28;20208;-69
2022/06/12 08:26:08;;;;;;;3.83;2.80;;;24.20;99.90;;;;;;5013474;28;20214;-70
2022/06/12 08:28:40;;;;;;;3.97;2.95;;;24.40;99.90;;;;;;5014646;28;20216;-69
2022/06/12 08:31:11;;;;;;;4.93;2.80;;;24.70;99.90;;;;;;5013201;28;20257;-73
2022/06/12 08:33:41;;;;;;;4.13;2.67;;;25.00;99.90;;;;;;5013158;28;20295;-69
2022/06/12 08:36:10;;;;;;;4.38;2.90;;;25.20;99.90;;;;;;4996937;28;20243;-69
2022/06/12 08:38:38;;;;;;;7.53;2.65;;;25.50;99.90;;;;;;4992896;28;20660;-70
2022/06/12 08:41:21;;;;;;;4.15;2.80;;;25.60;99.90;;;;;;4992011;28;20700;-69
2022/06/12 08:44:04;;;;;;;4.75;2.90;;;26.10;99.90;;;;;;4994304;28;20574;-71
2022/06/12 08:46:54;;;;;;;7.45;2.80;;;26.70;99.90;;;;;;4992640;28;20204;-70
2022/06/12 08:49:35;;;;;;;4.57;2.90;;;27.00;99.90;;;;;;4993276;28;20247;-72
2022/06/12 08:52:14;;;;;;;3.90;2.88;;;27.10;99.90;;;;;;4993126;28;20295;-73
2022/06/12 08:55:13;;;;;;;4.15;3.13;;;27.40;99.80;;;;;;4992914;28;20200;-69
2022/06/12 08:57:56;;;;;;;5.20;3.17;;;28.00;96.70;;;;;;4993025;28;20312;-68
2022/06/12 09:00:32;;;;;;;6.05;2.90;;;27.90;96.10;;;;;;4993418;28;20209;-75
2022/06/12 09:02:59;;;;;;;4.20;3.03;;;27.80;96.70;;;;;;4992666;28;20228;-71
2022/06/12 09:05:44;;;;;;;5.10;3.10;;;27.80;96.40;;;;;;4993829;28;20196;-69
2022/06/12 09:08:21;;;;;;;9.18;3.05;;;27.60;96.10;;;;;;4992739;28;20200;-71
2022/06/12 09:11:09;;;;;;;5.07;3.28;;;27.20;96.20;;;;;;4992395;28;20296;-68
2022/06/12 09:13:55;;;;;;;6.70;3.45;;;26.80;96.40;;;;;;4992681;28;20240;-67
2022/06/12 09:16:26;;;;;;;4.00;3.25;;;27.70;96.70;;;;;;4992704;28;20232;-67
2022/06/12 09:19:19;;;;;;;5.10;3.40;;;28.30;94.50;;;;;;4993008;28;20204;-68
2022/06/12 09:22:24;;;;;;;4.05;2.95;;;28.70;93.40;;;;;;4992674;28;20235;-68
2022/06/12 09:25:14;;;;;;;4.53;3.03;;;29.00;92.00;;;;;;4992708;28;20262;-68
2022/06/12 09:28:13;;;;;;;4.93;3.22;;;27.70;92.70;;;;;;4992623;28;20236;-67
2022/06/12 09:30:48;;;;;;;3.47;3.00;;;28.50;93.10;;;;;;4991525;28;20196;-72
2022/06/12 09:33:23;;;;;;;3.50;2.75;;;29.60;89.40;;;;;;4993959;28;20549;-69
2022/06/12 09:36:17;;;;;;;3.80;2.85;;;30.10;85.90;;;;;;4992619;28;20308;-69
2022/06/12 09:39:05;;;;;;;5.07;3.10;;;29.70;84.70;;;;;;4992653;28;20232;-69
2022/06/12 09:41:58;;;;;;;3.70;2.78;;;29.10;81.70;;;;;;4992418;28;20713;-77
2022/06/12 09:44:43;;;;;;;4.03;2.80;;;28.50;81.90;;;;;;4992195;28;20234;-70
2022/06/12 09:47:14;;;;;;;6.40;3.40;;;28.30;83.20;;;;;;4992560;28;20205;-70
2022/06/12 09:50:25;;;;;;;4.72;3.10;;;28.20;86.80;;;;;;4992485;28;20185;-69
2022/06/12 09:53:24;;;;;;;5.35;3.20;;;28.20;83.30;;;;;;4992447;28;20201;-72
2022/06/12 09:56:00;;;;;;;5.35;3.30;;;28.50;85.00;;;;;;4917619;29;20207;-69
2022/06/12 09:58:35;;;;;;;3.45;3.05;;;28.50;84.50;;;;;;4916549;29;20712;-69
2022/06/12 10:01:13;;;;;;;4.07;3.28;;;28.80;85.30;;;;;;4880026;29;20243;-69
2022/06/12 10:03:47;;;;;;;7.97;3.70;;;28.90;85.60;;;;;;4879662;29;20239;-69
2022/06/12 10:06:31;;;;;;;7.18;3.45;;;28.70;84.70;;;;;;4879901;29;20200;-69
2022/06/12 10:09:16;;;;;;;4.60;3.60;;;28.60;87.60;;;;;;4880238;29;20214;-68
2022/06/12 10:11:58;;;;;;;7.93;3.67;;;28.70;84.60;;;;;;4895551;29;20292;-68
2022/06/12 10:14:33;;;;;;;7.55;3.90;;;28.50;88.10;;;;;;4897037;29;21343;-68
2022/06/12 10:17:21;;;;;;;5.30;3.80;;;29.20;88.40;;;;;;4898526;29;20230;-71
2022/06/12 10:19:57;;;;;;;5.53;4.00;;;29.50;87.50;;;;;;4914744;29;20619;-67
2022/06/12 10:22:34;;;;;;;5.53;4.05;;;30.20;84.30;;;;;;4898659;29;20271;-71
2022/06/12 10:25:04;;;;;;;6.70;4.15;;;30.80;80.50;;;;;;4914612;29;20234;-69
2022/06/12 10:27:45;;;;;;;7.82;4.30;;;31.00;81.40;;;;;;4899057;29;20215;-75
2022/06/12 10:30:32;;;;;;;8.35;4.15;;;31.20;81.70;;;;;;4899042;29;20210;-67
2022/06/12 10:33:08;;;;;;;5.22;3.70;;;31.30;76.40;;;;;;4944658;28;20296;-65
2022/06/12 10:35:59;;;;;;;6.57;3.72;;;31.30;76.70;;;;;;4994366;28;20243;-66
2022/06/12 10:38:32;;;;;;;4.30;3.85;;;30.60;72.00;;;;;;5008393;28;20288;-66
2022/06/12 10:41:21;;;;;;;5.28;3.53;;;30.60;73.50;;;;;;4992270;28;20595;-67
2022/06/12 10:43:52;;;;;;;5.97;3.72;;;30.70;75.10;;;;;;4991895;28;20713;-67
2022/06/12 10:46:30;;;;;;;6.47;4.68;;;31.50;76.00;;;;;;4991967;28;20247;-68
2022/06/12 10:49:19;;;;;;;5.90;4.30;;;31.00;74.90;;;;;;4993247;28;20197;-67
2022/06/12 10:51:47;;;;;;;7.43;4.10;;;31.00;77.80;;;;;;5008512;28;20315;-67
2022/06/12 10:54:23;;;;;;;6.35;4.10;;;31.50;80.20;;;;;;5008189;28;20228;-67
2022/06/12 10:56:50;;;;;;;7.55;4.43;;;32.10;78.70;;;;;;4993246;28;20207;-66
2022/06/12 10:59:42;;;;;;;6.70;4.38;;;31.30;73.10;;;;;;4991972;28;20205;-67
2022/06/12 11:02:15;;;;;;;11.63;4.38;;;31.00;74.50;;;;;;4993034;28;20221;-67
2022/06/12 11:05:11;;;;;;;6.25;3.95;;;31.10;76.00;;;;;;4991700;28;20275;-66
2022/06/12 11:08:28;;;;;;;5.38;4.40;;;31.20;72.40;;;;;;4971362;28;20210;-67
2022/06/12 11:11:12;;;;;;;5.82;4.43;;;31.00;73.10;;;;;;4917276;29;20235;-67
2022/06/12 11:13:49;;;;;;;6.10;4.47;;;31.00;72.90;;;;;;4917411;29;20650;-67
2022/06/12 11:16:43;;;;;;;8.20;4.28;;;30.70;72.90;;;;;;4901770;29;20290;-66
2022/06/12 11:19:11;;;;;;;5.53;3.90;;;30.10;70.40;;;;;;4901577;29;20217;-66
2022/06/12 11:21:53;;;;;;;6.38;4.22;;;29.70;73.30;;;;;;4901656;29;20314;-66
2022/06/12 11:24:29;;;;;;;4.60;4.13;;;29.30;75.10;;;;;;4916994;29;20673;-66
2022/06/12 11:27:31;;;;;;;6.70;4.47;;;29.60;75.00;;;;;;4901832;29;20291;-67
2022/06/12 11:30:32;;;;;;;4.68;4.22;;;29.50;74.80;;;;;;4917338;29;20281;-66
2022/06/12 11:33:07;;;;;;;6.35;4.53;;;29.70;74.30;;;;;;4901430;29;20328;-67
2022/06/12 11:36:11;;;;;;;5.45;4.22;;;29.80;74.30;;;;;;4901206;29;20278;-67
2022/06/12 11:38:56;;;;;;;6.13;4.40;;;30.20;75.50;;;;;;4901501;29;20214;-67
2022/06/12 11:41:46;;;;;;;5.15;4.30;;;30.30;73.50;;;;;;4917280;29;20581;-67
2022/06/12 11:44:31;;;;;;;6.00;4.10;;;31.30;73.00;;;;;;4879514;29;20289;-67
2022/06/12 11:47:06;;;;;;;5.25;4.10;;;31.30;69.80;;;;;;4935929;29;20207;-67
2022/06/12 11:49:42;;;;;;;4.93;3.50;;;31.50;69.10;;;;;;4936150;29;20290;-67
2022/06/12 11:52:16;;;;;;;4.07;3.50;;;32.10;66.40;;;;;;4920252;29;20203;-68
2022/06/12 11:55:01;;;;;;;4.53;3.40;;;32.50;66.00;;;;;;4919952;29;20202;-69
2022/06/12 11:57:46;;;;;;;4.70;3.40;;;33.50;65.00;;;;;;4920053;29;20289;-68
2022/06/12 12:00:17;;;;;;;4.15;3.20;;;34.10;59.60;;;;;;4919884;29;20206;-68
2022/06/12 12:03:19;;;;;;;5.40;3.20;;;34.40;58.10;;;;;;4935546;29;20243;-68
2022/06/12 12:05:58;;;;;;;3.78;3.00;;;34.20;56.10;;;;;;4897666;29;20208;-68
2022/06/12 12:08:31;;;;;;;3.80;2.85;;;34.00;55.90;;;;;;4897770;29;20434;-68
2022/06/12 12:11:09;;;;;;;3.40;3.00;;;34.40;55.90;;;;;;4882240;29;20208;-66
2022/06/12 12:13:43;;;;;;;4.50;3.15;;;34.70;56.10;;;;;;4897821;29;20232;-68
2022/06/12 12:16:22;;;;;;;4.13;3.00;;;34.80;54.60;;;;;;4897606;29;20704;-66
2022/06/12 12:19:02;;;;;;;3.70;3.30;;;34.90;54.30;;;;;;4897782;29;20228;-67
2022/06/12 12:21:36;;;;;;;4.63;3.33;;;34.30;53.10;;;;;;4921659;29;20596;-67
2022/06/12 12:24:07;;;;;;;3.85;3.17;;;33.90;54.40;;;;;;4938523;29;20210;-67
2022/06/12 12:26:38;;;;;;;5.32;3.30;;;34.20;55.30;;;;;;4954471;29;20206;-68
2022/06/12 12:29:20;;;;;;;3.38;3.08;;;33.90;56.00;;;;;;4954583;29;20597;-68
2022/06/12 12:31:47;;;;;;;4.10;3.22;;;33.70;55.20;;;;;;4954439;29;20202;-68
2022/06/12 12:34:16;;;;;;;4.40;3.13;;;33.50;54.60;;;;;;4938382;29;20198;-68
2022/06/12 12:42:28;;;;;;;5.38;3.50;;;33.90;53.60;;;;;;4994039;28;20609;-68
2022/06/12 12:45:15;;;;;;;5.25;3.42;;;33.90;55.00;;;;;;4994821;28;20275;-68
2022/06/12 12:47:42;;;;;;;4.00;3.28;;;34.20;53.80;;;;;;5010512;28;20602;-67
2022/06/12 12:50:14;;;;;;;3.97;3.45;;;34.40;53.20;;;;;;5010169;28;20287;-67
2022/06/12 12:52:43;;;;;;;4.80;3.20;;;34.20;53.20;;;;;;4993714;28;20207;-68
2022/06/12 12:55:18;;;;;;;4.35;3.45;;;34.60;54.30;;;;;;4993431;28;20291;-67
2022/06/12 12:57:46;;;;;;;4.50;3.47;;;35.00;53.40;;;;;;5010027;28;20207;-68
2022/06/12 13:00:16;;;;;;;5.20;3.60;;;35.20;53.40;;;;;;5009680;28;20717;-68
2022/06/12 13:03:06;;;;;;;4.13;3.30;;;35.50;52.00;;;;;;5009655;28;20324;-69
2022/06/12 13:05:39;;;;;;;4.00;3.15;;;35.30;53.50;;;;;;4993392;28;20193;-68
2022/06/12 13:08:26;;;;;;;5.32;3.40;;;35.50;52.50;;;;;;4993528;28;20333;-68
2022/06/12 13:11:22;;;;;;;4.18;3.60;;;35.30;52.00;;;;;;4990667;28;20201;-68
2022/06/12 13:14:08;;;;;;;5.30;3.50;;;35.30;53.00;;;;;;4993259;28;20312;-68
2022/06/12 13:16:54;;;;;;;3.78;3.33;;;35.00;51.50;;;;;;4993399;28;20207;-67
2022/06/12 13:19:51;;;;;;;3.80;3.15;;;34.90;53.00;;;;;;4993432;28;20201;-68
2022/06/12 13:22:39;;;;;;;7.20;3.40;;;34.70;52.90;;;;;;4992870;28;20766;-67
2022/06/12 13:25:17;;;;;;;4.68;3.60;;;35.20;52.90;;;;;;4994057;28;20193;-68
2022/06/12 13:27:52;;;;;;;6.32;3.50;;;35.40;51.70;;;;;;4993517;28;20645;-67
2022/06/12 13:30:24;;;;;;;4.55;3.50;;;35.40;52.10;;;;;;5009467;28;20197;-67
2022/06/12 13:32:51;;;;;;;4.18;3.30;;;35.80;53.00;;;;;;5009356;28;20204;-67
2022/06/12 13:35:33;;;;;;;5.20;3.47;;;35.60;51.10;;;;;;4992598;28;20311;-66
2022/06/12 13:38:05;;;;;;;4.45;3.60;;;34.50;51.90;;;;;;4992734;28;20730;-68
2022/06/12 13:40:39;;;;;;;8.13;3.30;;;34.40;53.00;;;;;;4994302;28;20196;-68
2022/06/12 13:43:12;;;;;;;4.93;3.33;;;34.80;53.40;;;;;;4992830;28;20227;-68